createdAt,value
2018-05-09T00:00:46.893Z,2.40
2018-05-09T00:03:14.395Z,2.63
2018-05-09T00:05:41.893Z,2.17
2018-05-09T00:08:09.394Z,2.50
2018-05-09T00:10:36.922Z,2.40
2018-05-09T00:13:04.438Z,2.30
2018-05-09T00:15:31.962Z,2.60
2018-05-09T00:17:59.472Z,2.20
2018-05-09T00:20:26.984Z,2.27
2018-05-09T00:22:54.552Z,2.20
2018-05-09T00:25:22.064Z,2.10
2018-05-09T00:27:49.614Z,2.27
2018-05-09T00:30:17.110Z,2.00
2018-05-09T00:32:44.622Z,2.20
2018-05-09T00:35:12.126Z,2.40
2018-05-09T00:37:39.629Z,1.90
2018-05-09T00:40:07.147Z,2.37
2018-05-09T00:42:34.663Z,2.10
2018-05-09T00:45:02.209Z,2.20
2018-05-09T00:47:29.711Z,2.37
2018-05-09T00:49:57.218Z,2.33
2018-05-09T00:52:24.797Z,2.13
2018-05-09T00:54:52.299Z,2.20
2018-05-09T00:57:19.814Z,2.20
2018-05-09T00:59:47.425Z,2.10
2018-05-09T01:02:14.935Z,2.13
2018-05-09T01:04:42.434Z,2.27
2018-05-09T01:07:09.954Z,2.57
2018-05-09T01:09:37.471Z,2.83
2018-05-09T01:12:05.001Z,2.57
2018-05-09T01:14:32.639Z,3.07
2018-05-09T01:17:00.126Z,2.23
2018-05-09T01:19:27.641Z,2.60
2018-05-09T01:21:55.173Z,1.70
2018-05-09T01:24:22.722Z,2.07
2018-05-09T01:26:50.345Z,1.80
2018-05-09T01:29:17.865Z,1.80
2018-05-09T01:31:45.507Z,2.10
2018-05-09T01:34:13.335Z,2.03
2018-05-09T01:36:40.888Z,1.80
2018-05-09T01:39:08.402Z,1.80
2018-05-09T01:41:35.905Z,1.70
2018-05-09T01:44:03.483Z,2.27
2018-05-09T01:46:30.969Z,2.00
2018-05-09T01:48:58.479Z,2.53
2018-05-09T01:51:25.990Z,1.97
2018-05-09T01:53:53.538Z,1.93
2018-05-09T01:56:21.036Z,1.73
2018-05-09T01:58:49.047Z,1.83
2018-05-09T02:01:16.656Z,1.83
2018-05-09T02:03:44.307Z,1.80
2018-05-09T02:06:11.902Z,1.80
2018-05-09T02:08:39.421Z,1.83
2018-05-09T02:11:06.935Z,2.10
2018-05-09T02:13:34.478Z,1.73
2018-05-09T02:16:01.985Z,1.93
2018-05-09T02:18:29.491Z,1.93
2018-05-09T02:20:57.044Z,2.37
2018-05-09T02:23:24.553Z,1.73
2018-05-09T02:25:52.058Z,2.07
2018-05-09T02:28:19.549Z,2.10
2018-05-09T02:30:47.059Z,2.03
2018-05-09T02:33:14.600Z,1.97
2018-05-09T02:35:42.149Z,2.10
2018-05-09T02:38:10.012Z,1.80
2018-05-09T02:40:37.501Z,2.23
2018-05-09T02:43:05.011Z,1.93
2018-05-09T02:45:32.514Z,2.13
2018-05-09T02:48:00.040Z,2.40
2018-05-09T02:50:27.543Z,2.60
2018-05-09T02:52:55.028Z,2.47
2018-05-09T02:55:22.525Z,3.03
2018-05-09T02:57:50.038Z,2.80
2018-05-09T03:00:17.538Z,2.90
2018-05-09T03:02:45.031Z,2.70
2018-05-09T03:05:12.601Z,3.27
2018-05-09T03:07:40.414Z,2.50
2018-05-09T03:10:07.909Z,2.80
2018-05-09T03:12:35.413Z,2.40
2018-05-09T03:15:02.965Z,2.50
2018-05-09T03:17:30.514Z,2.63
2018-05-09T03:19:58.040Z,2.13
2018-05-09T03:22:25.534Z,2.53
2018-05-09T03:24:53.119Z,2.33
2018-05-09T03:27:20.676Z,2.57
2018-05-09T03:29:48.186Z,2.63
2018-05-09T03:32:15.713Z,2.70
2018-05-09T03:34:43.208Z,2.50
2018-05-09T03:37:10.748Z,2.67
2018-05-09T03:39:38.386Z,2.43
2018-05-09T03:42:05.889Z,2.47
2018-05-09T03:44:33.427Z,2.87
2018-05-09T03:47:00.934Z,3.43
2018-05-09T03:49:28.458Z,2.90
2018-05-09T03:51:55.962Z,2.60
2018-05-09T03:54:23.477Z,2.97
2018-05-09T03:56:50.983Z,3.10
2018-05-09T03:59:18.502Z,2.97
2018-05-09T04:01:51.769Z,3.60
2018-05-09T04:04:25.117Z,3.63
2018-05-09T04:06:58.437Z,3.60
2018-05-09T04:09:31.800Z,3.70
2018-05-09T04:11:59.914Z,3.20
2018-05-09T04:14:27.413Z,3.80
2018-05-09T04:16:54.971Z,3.87
2018-05-09T04:19:22.479Z,3.70
2018-05-09T04:21:50.294Z,3.93
2018-05-09T04:24:17.785Z,3.53
2018-05-09T04:26:45.571Z,3.60
2018-05-09T04:29:13.064Z,3.80
2018-05-09T04:31:40.556Z,3.93
2018-05-09T04:34:08.069Z,4.03
2018-05-09T04:36:35.593Z,4.03
2018-05-09T04:39:03.166Z,3.70
2018-05-09T04:41:30.741Z,4.13
2018-05-09T04:43:58.517Z,3.60
2018-05-09T04:46:26.038Z,4.37
2018-05-09T04:48:53.533Z,3.60
2018-05-09T04:51:21.987Z,4.53
2018-05-09T04:53:49.483Z,4.43
2018-05-09T04:56:17.007Z,4.40
2018-05-09T04:58:44.506Z,4.83
2018-05-09T05:01:11.991Z,4.77
2018-05-09T05:03:39.495Z,4.80
2018-05-09T05:06:06.993Z,5.10
2018-05-09T05:08:34.519Z,4.90
2018-05-09T05:11:02.043Z,6.40
2018-05-09T05:13:29.543Z,4.67
2018-05-09T05:15:57.100Z,5.90
2018-05-09T05:18:24.617Z,6.00
2018-05-09T05:20:52.133Z,5.50
2018-05-09T05:23:19.643Z,5.87
2018-05-09T05:25:47.209Z,6.30
2018-05-09T05:28:14.802Z,6.50
2018-05-09T05:30:42.326Z,6.63
2018-05-09T05:33:09.851Z,6.83
2018-05-09T05:35:37.365Z,6.90
2018-05-09T05:38:04.874Z,6.93
2018-05-09T05:40:32.415Z,6.70
2018-05-09T05:42:59.922Z,6.73
2018-05-09T05:45:27.506Z,7.43
2018-05-09T05:47:55.079Z,6.70
2018-05-09T05:50:22.589Z,6.83
2018-05-09T05:52:50.103Z,6.73
2018-05-09T05:55:17.659Z,7.17
2018-05-09T05:57:45.157Z,7.60
2018-05-09T06:00:12.890Z,7.60
2018-05-09T06:02:40.560Z,7.20
2018-05-09T06:05:08.074Z,7.50
2018-05-09T06:07:35.851Z,7.43
2018-05-09T06:10:03.403Z,8.03
2018-05-09T06:12:30.988Z,8.00
2018-05-09T06:14:58.504Z,8.10
2018-05-09T06:17:26.003Z,8.87
2018-05-09T06:19:53.961Z,9.10
2018-05-09T06:22:21.496Z,9.20
2018-05-09T06:24:49.013Z,9.30
2018-05-09T06:27:16.550Z,9.50
2018-05-09T06:29:44.082Z,9.03
2018-05-09T06:32:11.583Z,9.40
2018-05-09T06:34:39.074Z,8.67
2018-05-09T06:37:06.587Z,9.47
2018-05-09T06:39:34.107Z,10.40
2018-05-09T06:42:01.644Z,9.27
2018-05-09T06:44:29.168Z,9.93
2018-05-09T06:46:56.690Z,10.40
2018-05-09T06:49:24.189Z,9.77
2018-05-09T06:51:51.754Z,9.37
2018-05-09T06:54:19.258Z,9.00
2018-05-09T06:56:46.758Z,10.03
2018-05-09T06:59:14.298Z,9.67
2018-05-09T07:01:41.809Z,8.77
2018-05-09T07:04:09.327Z,9.47
2018-05-09T07:06:36.938Z,8.77
2018-05-09T07:09:04.402Z,8.97
2018-05-09T07:11:31.900Z,9.00
2018-05-09T07:13:59.396Z,9.00
2018-05-09T07:16:26.934Z,9.03
2018-05-09T07:18:54.442Z,10.17
2018-05-09T07:21:21.957Z,10.40
2018-05-09T07:23:49.587Z,9.87
2018-05-09T07:26:17.155Z,10.73
2018-05-09T07:28:44.732Z,10.80
2018-05-09T07:31:12.341Z,11.10
2018-05-09T07:33:39.859Z,11.17
2018-05-09T07:36:07.372Z,11.60
2018-05-09T07:38:34.914Z,12.30
2018-05-09T07:41:02.423Z,11.87
2018-05-09T07:43:29.937Z,11.47
2018-05-09T07:45:57.447Z,12.13
2018-05-09T07:48:24.957Z,11.67
2018-05-09T07:50:52.502Z,11.83
2018-05-09T07:53:20.050Z,12.23
2018-05-09T07:55:47.610Z,11.33
2018-05-09T07:58:15.188Z,11.87
2018-05-09T08:00:42.707Z,11.37
2018-05-09T08:03:10.238Z,11.57
2018-05-09T08:05:37.762Z,12.63
2018-05-09T08:08:05.292Z,12.63
2018-05-09T08:10:32.807Z,12.10
2018-05-09T08:13:00.322Z,12.07
2018-05-09T08:15:27.847Z,12.63
2018-05-09T08:17:55.369Z,12.43
2018-05-09T08:20:22.879Z,13.10
2018-05-09T08:22:50.417Z,13.13
2018-05-09T08:25:17.976Z,12.77
2018-05-09T08:27:45.681Z,13.20
2018-05-09T08:30:13.242Z,13.03
2018-05-09T08:32:40.935Z,12.67
2018-05-09T08:35:08.465Z,12.73
2018-05-09T08:37:36.035Z,12.97
2018-05-09T08:40:03.571Z,13.43
2018-05-09T08:42:31.097Z,12.83
2018-05-09T08:44:58.618Z,13.13
2018-05-09T08:47:26.154Z,13.37
2018-05-09T08:49:53.681Z,13.13
2018-05-09T08:52:21.238Z,14.30
2018-05-09T08:54:48.754Z,12.87
2018-05-09T08:57:16.272Z,12.93
2018-05-09T08:59:43.839Z,13.00
2018-05-09T09:02:11.348Z,12.70
2018-05-09T09:04:38.892Z,12.93
2018-05-09T09:07:06.402Z,12.97
2018-05-09T09:09:33.946Z,13.00
2018-05-09T09:12:01.498Z,13.37
2018-05-09T09:14:29.030Z,12.90
2018-05-09T09:16:56.543Z,11.70
2018-05-09T09:19:24.083Z,13.30
2018-05-09T09:21:51.582Z,12.90
2018-05-09T09:24:19.114Z,11.77
2018-05-09T09:26:46.624Z,12.27
2018-05-09T09:29:14.173Z,11.90
2018-05-09T09:31:41.787Z,11.63
2018-05-09T09:34:09.364Z,13.30
2018-05-09T09:36:36.869Z,12.87
2018-05-09T09:39:05.397Z,13.10
2018-05-09T09:41:32.935Z,13.23
2018-05-09T09:44:00.487Z,12.70
2018-05-09T09:46:28.018Z,12.83
2018-05-09T09:48:55.547Z,12.73
2018-05-09T09:51:23.097Z,12.07
2018-05-09T09:53:50.606Z,13.17
2018-05-09T09:56:18.130Z,13.60
2018-05-09T09:58:45.676Z,14.07
2018-05-09T10:01:13.185Z,13.00
2018-05-09T10:03:40.743Z,13.70
2018-05-09T10:06:08.263Z,13.87
2018-05-09T10:08:35.776Z,14.27
2018-05-09T10:11:03.294Z,13.37
2018-05-09T10:13:30.844Z,12.10
2018-05-09T10:15:58.394Z,13.47
2018-05-09T10:18:25.913Z,13.13
2018-05-09T10:20:53.466Z,12.37
2018-05-09T10:23:21.032Z,13.03
2018-05-09T10:25:48.541Z,11.93
2018-05-09T10:28:16.073Z,12.17
2018-05-09T10:30:43.591Z,11.13
2018-05-09T10:33:11.102Z,11.87
2018-05-09T10:35:39.298Z,10.93
2018-05-09T10:38:06.804Z,12.00
2018-05-09T10:40:34.322Z,11.83
2018-05-09T10:43:01.843Z,11.77
2018-05-09T10:45:29.361Z,11.90
2018-05-09T10:47:56.860Z,11.90
2018-05-09T10:50:24.421Z,13.07
2018-05-09T10:52:51.939Z,12.50
2018-05-09T10:55:19.545Z,12.77
2018-05-09T10:57:47.068Z,12.20
2018-05-09T11:00:14.601Z,13.37
2018-05-09T11:02:42.141Z,12.10
2018-05-09T11:05:09.755Z,12.03
2018-05-09T11:07:37.629Z,12.60
2018-05-09T11:10:05.151Z,12.57
2018-05-09T11:12:32.652Z,12.97
2018-05-09T11:15:00.166Z,12.53
2018-05-09T11:17:27.676Z,11.50
2018-05-09T11:19:55.201Z,11.80
2018-05-09T11:22:22.700Z,11.97
2018-05-09T11:24:50.252Z,11.10
2018-05-09T11:27:17.754Z,12.37
2018-05-09T11:29:45.263Z,12.00
2018-05-09T11:32:12.807Z,11.03
2018-05-09T11:34:40.329Z,11.83
2018-05-09T11:37:07.949Z,11.30
2018-05-09T11:39:35.526Z,11.67
2018-05-09T11:42:03.056Z,11.17
2018-05-09T11:44:30.563Z,10.93
2018-05-09T11:46:58.109Z,12.13
2018-05-09T11:49:25.635Z,10.67
2018-05-09T11:51:53.193Z,10.93
2018-05-09T11:54:20.774Z,11.80
2018-05-09T11:56:48.299Z,10.73
2018-05-09T11:59:15.827Z,10.27
2018-05-09T12:01:43.357Z,10.80
2018-05-09T12:04:10.897Z,10.33
2018-05-09T12:06:38.438Z,10.77
2018-05-09T12:09:05.971Z,11.03
2018-05-09T12:11:33.543Z,10.40
2018-05-09T12:14:01.070Z,10.17
2018-05-09T12:16:28.623Z,10.20
2018-05-09T12:18:56.149Z,10.90
2018-05-09T12:21:23.653Z,10.20
2018-05-09T12:23:51.171Z,10.70
2018-05-09T12:26:18.685Z,10.00
2018-05-09T12:28:46.203Z,10.00
2018-05-09T12:31:13.732Z,9.47
2018-05-09T12:33:41.261Z,10.90
2018-05-09T12:36:08.784Z,11.20
2018-05-09T12:38:36.460Z,11.00
2018-05-09T12:41:03.970Z,10.13
2018-05-09T12:43:31.532Z,9.73
2018-05-09T12:45:59.062Z,10.50
2018-05-09T12:48:26.591Z,9.43
2018-05-09T12:50:54.139Z,9.50
2018-05-09T12:53:21.642Z,9.13
2018-05-09T12:55:49.160Z,10.27
2018-05-09T12:58:16.764Z,10.00
2018-05-09T13:00:44.262Z,10.13
2018-05-09T13:03:11.824Z,10.13
2018-05-09T13:05:39.352Z,9.47
2018-05-09T13:08:06.894Z,9.23
2018-05-09T13:10:34.442Z,8.93
2018-05-09T13:13:01.950Z,9.77
2018-05-09T13:15:29.506Z,9.27
2018-05-09T13:17:57.026Z,8.70
2018-05-09T13:20:24.525Z,8.90
2018-05-09T13:22:52.087Z,10.13
2018-05-09T13:25:19.616Z,9.97
2018-05-09T13:27:47.151Z,10.83
2018-05-09T13:30:14.650Z,9.53
2018-05-09T13:32:42.167Z,9.00
2018-05-09T13:35:09.850Z,9.10
2018-05-09T13:37:37.363Z,8.63
2018-05-09T13:40:04.892Z,7.63
2018-05-09T13:42:32.440Z,8.73
2018-05-09T13:44:59.939Z,8.27
2018-05-09T13:47:27.534Z,9.30
2018-05-09T13:49:55.037Z,8.93
2018-05-09T13:52:22.531Z,8.20
2018-05-09T13:54:50.062Z,8.70
2018-05-09T13:57:17.581Z,9.30
2018-05-09T13:59:45.103Z,8.57
2018-05-09T14:02:12.614Z,9.10
2018-05-09T14:04:40.153Z,8.70
2018-05-09T14:07:07.674Z,8.83
2018-05-09T14:09:35.199Z,8.80
2018-05-09T14:12:02.750Z,8.07
2018-05-09T14:14:30.269Z,8.27
2018-05-09T14:16:57.797Z,8.17
2018-05-09T14:19:25.369Z,9.00
2018-05-09T14:21:52.921Z,8.83
2018-05-09T14:24:20.435Z,9.40
2018-05-09T14:26:48.048Z,8.30
2018-05-09T14:29:15.733Z,8.80
2018-05-09T14:31:43.583Z,9.50
2018-05-09T14:34:11.107Z,9.17
2018-05-09T14:36:38.696Z,8.27
2018-05-09T14:39:06.216Z,8.53
2018-05-09T14:41:33.724Z,8.90
2018-05-09T14:44:01.217Z,8.83
2018-05-09T14:46:28.768Z,8.80
2018-05-09T14:48:56.312Z,9.33
2018-05-09T14:51:23.870Z,8.93
2018-05-09T14:53:51.385Z,8.63
2018-05-09T14:56:18.918Z,9.17
2018-05-09T14:58:46.447Z,8.23
2018-05-09T15:01:14.014Z,8.00
2018-05-09T15:03:41.615Z,8.27
2018-05-09T15:06:09.156Z,7.73
2018-05-09T15:08:36.788Z,8.23
2018-05-09T15:11:04.257Z,7.90
2018-05-09T15:13:31.809Z,8.13
2018-05-09T15:15:59.310Z,7.90
2018-05-09T15:18:26.830Z,8.00
2018-05-09T15:20:54.388Z,7.90
2018-05-09T15:23:21.962Z,7.83
2018-05-09T15:25:49.470Z,7.67
2018-05-09T15:28:17.029Z,7.73
2018-05-09T15:30:44.557Z,8.07
2018-05-09T15:33:12.067Z,7.50
2018-05-09T15:35:39.589Z,7.87
2018-05-09T15:38:07.114Z,7.93
2018-05-09T15:40:34.642Z,7.90
2018-05-09T15:43:02.248Z,8.20
2018-05-09T15:45:29.830Z,8.10
2018-05-09T15:47:57.632Z,7.93
2018-05-09T15:50:25.137Z,8.50
2018-05-09T15:52:52.655Z,6.80
2018-05-09T15:55:20.366Z,7.20
2018-05-09T15:57:47.953Z,8.70
2018-05-09T16:00:15.485Z,8.07
2018-05-09T16:02:43.070Z,7.43
2018-05-09T16:05:10.612Z,7.67
2018-05-09T16:07:38.235Z,7.53
2018-05-09T16:10:05.705Z,7.47
2018-05-09T16:12:33.270Z,7.67
2018-05-09T16:15:00.827Z,7.70
2018-05-09T16:17:28.369Z,6.80
2018-05-09T16:19:55.945Z,7.10
2018-05-09T16:22:23.605Z,6.67
2018-05-09T16:24:51.049Z,7.73
2018-05-09T16:27:18.608Z,6.93
2018-05-09T16:29:46.213Z,6.50
2018-05-09T16:32:13.661Z,7.53
2018-05-09T16:34:41.179Z,7.87
2018-05-09T16:37:08.729Z,7.53
2018-05-09T16:39:36.310Z,8.20
2018-05-09T16:42:03.879Z,7.27
2018-05-09T16:44:31.469Z,7.70
2018-05-09T16:46:59.063Z,7.53
2018-05-09T16:49:26.540Z,7.40
2018-05-09T16:51:54.088Z,6.37
2018-05-09T16:54:21.650Z,7.30
2018-05-09T16:56:49.171Z,7.37
2018-05-09T16:59:16.789Z,7.47
2018-05-09T17:01:44.238Z,7.00
2018-05-09T17:04:11.734Z,7.40
2018-05-09T17:06:39.178Z,7.23
2018-05-09T17:09:06.713Z,6.90
2018-05-09T17:11:34.165Z,6.73
2018-05-09T17:14:01.717Z,6.53
2018-05-09T17:16:29.274Z,7.03
2018-05-09T17:18:56.846Z,8.27
2018-05-09T17:21:35.057Z,6.83
2018-05-09T17:24:02.545Z,7.03
2018-05-09T17:26:29.998Z,7.10
2018-05-09T17:28:57.569Z,6.70
2018-05-09T17:31:25.237Z,6.80
2018-05-09T17:33:52.756Z,6.37
2018-05-09T17:36:20.266Z,6.60
2018-05-09T17:38:47.779Z,7.00
2018-05-09T17:41:15.317Z,6.10
2018-05-09T17:43:42.857Z,6.77
2018-05-09T17:46:10.353Z,7.00
2018-05-09T17:48:37.880Z,6.30
2018-05-09T17:51:05.401Z,6.57
2018-05-09T17:53:32.927Z,6.47
2018-05-09T17:56:00.792Z,6.53
2018-05-09T17:58:28.314Z,6.90
2018-05-09T18:00:55.812Z,7.17
2018-05-09T18:03:23.314Z,6.40
2018-05-09T18:05:51.011Z,7.00
2018-05-09T18:08:18.713Z,6.73
2018-05-09T18:10:46.222Z,7.10
2018-05-09T18:13:13.721Z,7.27
2018-05-09T18:15:41.221Z,6.87
2018-05-09T18:18:08.772Z,6.60
2018-05-09T18:20:36.229Z,6.50
2018-05-09T18:23:03.746Z,7.57
2018-05-09T18:25:31.273Z,6.43
2018-05-09T18:27:58.743Z,6.50
2018-05-09T18:30:26.235Z,7.20
2018-05-09T18:32:53.748Z,6.37
2018-05-09T18:35:21.339Z,6.40
2018-05-09T18:37:48.836Z,7.13
2018-05-09T18:40:16.363Z,6.67
2018-05-09T18:42:43.893Z,6.47
2018-05-09T18:45:11.407Z,6.67
2018-05-09T18:47:38.875Z,7.37
2018-05-09T18:50:06.370Z,7.13
2018-05-09T18:52:33.847Z,7.43
2018-05-09T18:55:01.295Z,7.63
2018-05-09T18:57:28.884Z,7.77
2018-05-09T18:59:56.376Z,8.23
2018-05-09T19:02:23.992Z,7.77
2018-05-09T19:04:51.484Z,7.60
2018-05-09T19:07:19.638Z,7.93
2018-05-09T19:09:47.186Z,8.40
2018-05-09T19:12:14.718Z,8.43
2018-05-09T19:14:42.229Z,8.60
2018-05-09T19:17:09.773Z,7.83
2018-05-09T19:19:37.238Z,8.30
2018-05-09T19:22:04.753Z,8.87
2018-05-09T19:24:32.311Z,7.57
2018-05-09T19:26:59.849Z,8.63
2018-05-09T19:29:27.317Z,8.27
2018-05-09T19:31:54.888Z,7.70
2018-05-09T19:34:22.386Z,9.33
2018-05-09T19:36:49.890Z,9.70
2018-05-09T19:39:17.797Z,8.40
2018-05-09T19:41:45.263Z,8.63
2018-05-09T19:44:12.797Z,8.47
2018-05-09T19:46:40.254Z,8.57
2018-05-09T19:49:07.829Z,9.57
2018-05-09T19:51:35.343Z,8.07
2018-05-09T19:54:02.818Z,9.00
2018-05-09T19:56:30.277Z,8.83
2018-05-09T19:58:57.848Z,9.83
2018-05-09T20:01:25.313Z,9.13
2018-05-09T20:03:52.798Z,9.10
2018-05-09T20:06:20.433Z,9.17
2018-05-09T20:08:47.947Z,9.27
2018-05-09T20:11:15.878Z,8.93
2018-05-09T20:13:43.389Z,9.37
2018-05-09T20:16:10.894Z,8.67
2018-05-09T20:18:38.377Z,9.00
2018-05-09T20:21:05.935Z,8.60
2018-05-09T20:23:33.474Z,9.03
2018-05-09T20:26:00.970Z,9.30
2018-05-09T20:28:28.445Z,8.93
2018-05-09T20:31:01.457Z,8.70
2018-05-09T20:33:28.945Z,8.70
2018-05-09T20:35:56.424Z,9.10
2018-05-09T20:38:23.887Z,9.20
2018-05-09T20:40:51.337Z,9.10
2018-05-09T20:43:18.926Z,9.37
2018-05-09T20:45:46.450Z,9.33
2018-05-09T20:48:13.901Z,8.93
2018-05-09T20:50:41.363Z,9.20
2018-05-09T20:53:08.876Z,8.90
2018-05-09T20:55:36.378Z,8.03
2018-05-09T20:58:03.966Z,9.13
2018-05-09T21:00:31.466Z,9.70
2018-05-09T21:02:58.945Z,9.90
2018-05-09T21:05:26.419Z,8.93
2018-05-09T21:07:55.860Z,8.73
2018-05-09T21:10:23.381Z,8.73
2018-05-09T21:12:50.850Z,10.30
2018-05-09T21:15:18.403Z,9.27
2018-05-09T21:17:45.857Z,9.63
2018-05-09T21:20:13.333Z,9.27
2018-05-09T21:22:40.933Z,9.60
2018-05-09T21:25:08.389Z,10.57
2018-05-09T21:27:35.903Z,9.10
2018-05-09T21:30:03.526Z,9.10
2018-05-09T21:32:31.106Z,9.60
2018-05-09T21:34:58.561Z,9.60
2018-05-09T21:37:26.017Z,9.30
2018-05-09T21:39:53.492Z,9.90
2018-05-09T21:42:21.042Z,8.13
2018-05-09T21:44:48.518Z,9.00
2018-05-09T21:47:16.162Z,8.80
2018-05-09T21:49:43.619Z,8.83
2018-05-09T21:52:11.086Z,8.93
2018-05-09T21:54:38.539Z,8.07
2018-05-09T21:57:05.997Z,9.30
2018-05-09T21:59:33.507Z,8.27
2018-05-09T22:02:00.963Z,8.87
2018-05-09T22:04:28.515Z,8.87
2018-05-09T22:06:55.984Z,9.53
2018-05-09T22:09:23.525Z,8.70
2018-05-09T22:11:51.250Z,8.60
2018-05-09T22:14:18.771Z,9.10
2018-05-09T22:16:46.218Z,8.23
2018-05-09T22:19:13.805Z,9.10
2018-05-09T22:21:41.263Z,9.00
2018-05-09T22:24:08.799Z,9.27
2018-05-09T22:26:36.490Z,9.07
2018-05-09T22:29:03.948Z,9.07
2018-05-09T22:31:31.410Z,9.73
2018-05-09T22:33:58.875Z,9.20
2018-05-09T22:36:26.417Z,10.13
2018-05-09T22:38:53.963Z,10.30
2018-05-09T22:41:21.495Z,10.53
2018-05-09T22:43:49.050Z,10.37
2018-05-09T22:46:16.595Z,10.90
2018-05-09T22:48:44.243Z,11.17
2018-05-09T22:51:12.193Z,11.47
2018-05-09T22:53:39.691Z,9.93
2018-05-09T22:56:07.290Z,10.27
2018-05-09T22:58:34.818Z,10.80
2018-05-09T23:01:02.359Z,10.03
2018-05-09T23:03:30.199Z,10.33
2018-05-09T23:05:58.054Z,10.03
2018-05-09T23:08:25.575Z,9.57
2018-05-09T23:10:53.099Z,10.10
2018-05-09T23:13:20.608Z,9.60
2018-05-09T23:15:48.260Z,10.03
2018-05-09T23:18:15.804Z,10.33
2018-05-09T23:20:43.338Z,10.80
2018-05-09T23:23:10.917Z,9.90
2018-05-09T23:25:38.520Z,10.80
2018-05-09T23:28:05.973Z,10.23
2018-05-09T23:30:33.506Z,10.47
2018-05-09T23:33:01.023Z,9.97
2018-05-09T23:35:28.529Z,9.13
2018-05-09T23:37:56.038Z,9.73
2018-05-09T23:40:23.562Z,9.70
2018-05-09T23:42:51.089Z,9.23
2018-05-09T23:45:18.606Z,8.90
2018-05-09T23:47:46.114Z,9.20
2018-05-09T23:50:13.709Z,8.80
2018-05-09T23:52:41.225Z,9.47
2018-05-09T23:55:08.822Z,8.67
2018-05-09T23:57:36.321Z,8.47
